sensor_id;sensor_type;location;lat;lon;timestamp;P1;durP1;ratioP1;P2;durP2;ratioP2
3274;SDS011;1649;53.672;10.064;2023-07-13T00:02:05;9.80;;;6.97;;
3274;SDS011;1649;53.672;10.064;2023-07-13T00:04:30;10.50;;;6.27;;
3274;SDS011;1649;53.672;10.064;2023-07-13T00:06:56;13.03;;;5.93;;
3274;SDS011;1649;53.672;10.064;2023-07-13T00:09:22;10.30;;;6.17;;
3274;SDS011;1649;53.672;10.064;2023-07-13T00:11:52;14.70;;;6.13;;
3274;SDS011;1649;53.672;10.064;2023-07-13T00:14:20;12.80;;;6.23;;
3274;SDS011;1649;53.672;10.064;2023-07-13T00:16:45;9.60;;;5.57;;
3274;SDS011;1649;53.672;10.064;2023-07-13T00:19:11;11.87;;;6.20;;
3274;SDS011;1649;53.672;10.064;2023-07-13T00:21:38;12.17;;;6.10;;
3274;SDS011;1649;53.672;10.064;2023-07-13T00:24:05;13.53;;;6.53;;
3274;SDS011;1649;53.672;10.064;2023-07-13T00:26:31;8.50;;;5.70;;
3274;SDS011;1649;53.672;10.064;2023-07-13T00:28:57;10.03;;;6.10;;
3274;SDS011;1649;53.672;10.064;2023-07-13T00:31:23;8.23;;;4.93;;
3274;SDS011;1649;53.672;10.064;2023-07-13T00:33:48;10.70;;;6.00;;
3274;SDS011;1649;53.672;10.064;2023-07-13T00:36:14;9.47;;;5.90;;
3274;SDS011;1649;53.672;10.064;2023-07-13T00:38:40;11.57;;;5.20;;
3274;SDS011;1649;53.672;10.064;2023-07-13T00:41:05;11.23;;;5.50;;
3274;SDS011;1649;53.672;10.064;2023-07-13T00:43:31;9.20;;;5.97;;
3274;SDS011;1649;53.672;10.064;2023-07-13T00:46:11;9.20;;;6.03;;
3274;SDS011;1649;53.672;10.064;2023-07-13T00:48:42;8.93;;;5.93;;
3274;SDS011;1649;53.672;10.064;2023-07-13T00:51:08;11.20;;;5.53;;
3274;SDS011;1649;53.672;10.064;2023-07-13T00:53:35;10.13;;;6.13;;
3274;SDS011;1649;53.672;10.064;2023-07-13T00:56:01;8.73;;;5.90;;
3274;SDS011;1649;53.672;10.064;2023-07-13T00:58:28;10.77;;;6.57;;
3274;SDS011;1649;53.672;10.064;2023-07-13T01:00:54;7.47;;;4.80;;
3274;SDS011;1649;53.672;10.064;2023-07-13T01:03:20;8.67;;;5.83;;
3274;SDS011;1649;53.672;10.064;2023-07-13T01:05:47;8.40;;;5.90;;
3274;SDS011;1649;53.672;10.064;2023-07-13T01:08:14;9.33;;;5.50;;
3274;SDS011;1649;53.672;10.064;2023-07-13T01:10:40;8.90;;;5.37;;
3274;SDS011;1649;53.672;10.064;2023-07-13T01:13:07;9.50;;;5.80;;
3274;SDS011;1649;53.672;10.064;2023-07-13T01:18:03;9.87;;;5.83;;
3274;SDS011;1649;53.672;10.064;2023-07-13T01:20:31;9.93;;;6.20;;
3274;SDS011;1649;53.672;10.064;2023-07-13T01:23:02;10.37;;;6.40;;
3274;SDS011;1649;53.672;10.064;2023-07-13T01:25:33;9.17;;;5.93;;
3274;SDS011;1649;53.672;10.064;2023-07-13T01:28:00;8.83;;;5.83;;
3274;SDS011;1649;53.672;10.064;2023-07-13T01:30:27;11.60;;;5.57;;
3274;SDS011;1649;53.672;10.064;2023-07-13T01:32:52;8.10;;;5.83;;
3274;SDS011;1649;53.672;10.064;2023-07-13T01:35:17;10.67;;;6.73;;
3274;SDS011;1649;53.672;10.064;2023-07-13T01:37:43;11.30;;;6.40;;
3274;SDS011;1649;53.672;10.064;2023-07-13T01:40:10;9.53;;;6.50;;
3274;SDS011;1649;53.672;10.064;2023-07-13T01:42:36;11.70;;;6.43;;
3274;SDS011;1649;53.672;10.064;2023-07-13T01:45:02;12.00;;;7.33;;
3274;SDS011;1649;53.672;10.064;2023-07-13T01:47:27;10.87;;;7.57;;
3274;SDS011;1649;53.672;10.064;2023-07-13T01:49:53;12.43;;;7.13;;
3274;SDS011;1649;53.672;10.064;2023-07-13T01:52:19;9.93;;;6.80;;
3274;SDS011;1649;53.672;10.064;2023-07-13T01:54:44;11.70;;;7.40;;
3274;SDS011;1649;53.672;10.064;2023-07-13T01:57:10;13.17;;;7.80;;
3274;SDS011;1649;53.672;10.064;2023-07-13T01:59:35;14.20;;;7.40;;
3274;SDS011;1649;53.672;10.064;2023-07-13T02:02:01;10.97;;;7.23;;
3274;SDS011;1649;53.672;10.064;2023-07-13T02:04:26;11.87;;;7.50;;
3274;SDS011;1649;53.672;10.064;2023-07-13T02:06:52;10.47;;;7.10;;
3274;SDS011;1649;53.672;10.064;2023-07-13T02:09:17;12.40;;;8.30;;
3274;SDS011;1649;53.672;10.064;2023-07-13T02:11:43;11.90;;;8.13;;
3274;SDS011;1649;53.672;10.064;2023-07-13T02:14:08;13.33;;;7.20;;
3274;SDS011;1649;53.672;10.064;2023-07-13T02:16:34;14.20;;;7.30;;
3274;SDS011;1649;53.672;10.064;2023-07-13T02:18:59;12.10;;;7.10;;
3274;SDS011;1649;53.672;10.064;2023-07-13T02:21:25;11.40;;;8.00;;
3274;SDS011;1649;53.672;10.064;2023-07-13T02:23:50;10.77;;;7.27;;
3274;SDS011;1649;53.672;10.064;2023-07-13T02:26:17;9.80;;;7.77;;
3274;SDS011;1649;53.672;10.064;2023-07-13T02:28:42;9.87;;;6.80;;
3274;SDS011;1649;53.672;10.064;2023-07-13T02:31:09;12.60;;;7.50;;
3274;SDS011;1649;53.672;10.064;2023-07-13T02:33:37;9.83;;;6.40;;
3274;SDS011;1649;53.672;10.064;2023-07-13T02:36:02;10.83;;;6.77;;
3274;SDS011;1649;53.672;10.064;2023-07-13T02:38:30;11.67;;;7.00;;
3274;SDS011;1649;53.672;10.064;2023-07-13T02:40:58;9.13;;;6.23;;
3274;SDS011;1649;53.672;10.064;2023-07-13T02:43:24;12.00;;;7.40;;
3274;SDS011;1649;53.672;10.064;2023-07-13T02:45:50;11.83;;;7.93;;
3274;SDS011;1649;53.672;10.064;2023-07-13T02:48:15;10.90;;;6.93;;
3274;SDS011;1649;53.672;10.064;2023-07-13T02:50:41;11.00;;;8.30;;
3274;SDS011;1649;53.672;10.064;2023-07-13T02:53:07;13.77;;;8.03;;
3274;SDS011;1649;53.672;10.064;2023-07-13T02:55:32;13.03;;;8.43;;
3274;SDS011;1649;53.672;10.064;2023-07-13T02:57:57;11.53;;;8.23;;
3274;SDS011;1649;53.672;10.064;2023-07-13T03:00:23;11.80;;;9.03;;
3274;SDS011;1649;53.672;10.064;2023-07-13T03:02:49;11.43;;;8.50;;
3274;SDS011;1649;53.672;10.064;2023-07-13T03:05:14;14.30;;;8.67;;
3274;SDS011;1649;53.672;10.064;2023-07-13T03:07:41;13.20;;;9.50;;
3274;SDS011;1649;53.672;10.064;2023-07-13T03:10:07;14.30;;;8.30;;
3274;SDS011;1649;53.672;10.064;2023-07-13T03:12:33;11.50;;;7.90;;
3274;SDS011;1649;53.672;10.064;2023-07-13T03:14:58;10.87;;;9.00;;
3274;SDS011;1649;53.672;10.064;2023-07-13T03:17:24;13.00;;;8.80;;
3274;SDS011;1649;53.672;10.064;2023-07-13T03:19:49;14.13;;;9.93;;
3274;SDS011;1649;53.672;10.064;2023-07-13T03:22:16;13.40;;;10.23;;
3274;SDS011;1649;53.672;10.064;2023-07-13T03:24:43;14.43;;;9.80;;
3274;SDS011;1649;53.672;10.064;2023-07-13T03:27:09;13.30;;;10.57;;
3274;SDS011;1649;53.672;10.064;2023-07-13T03:29:34;15.20;;;10.70;;
3274;SDS011;1649;53.672;10.064;2023-07-13T03:32:00;14.60;;;10.87;;
3274;SDS011;1649;53.672;10.064;2023-07-13T03:34:25;14.00;;;11.07;;
3274;SDS011;1649;53.672;10.064;2023-07-13T03:36:53;14.97;;;11.33;;
3274;SDS011;1649;53.672;10.064;2023-07-13T03:39:19;17.73;;;11.77;;
3274;SDS011;1649;53.672;10.064;2023-07-13T03:41:45;14.43;;;12.13;;
3274;SDS011;1649;53.672;10.064;2023-07-13T03:44:11;14.60;;;11.30;;
3274;SDS011;1649;53.672;10.064;2023-07-13T03:46:36;17.53;;;11.87;;
3274;SDS011;1649;53.672;10.064;2023-07-13T03:49:03;16.10;;;12.37;;
3274;SDS011;1649;53.672;10.064;2023-07-13T03:51:29;18.50;;;11.87;;
3274;SDS011;1649;53.672;10.064;2023-07-13T03:53:55;16.83;;;12.10;;
3274;SDS011;1649;53.672;10.064;2023-07-13T03:56:21;18.07;;;12.30;;
3274;SDS011;1649;53.672;10.064;2023-07-13T03:58:47;20.40;;;12.73;;
3274;SDS011;1649;53.672;10.064;2023-07-13T04:01:15;14.70;;;10.57;;
3274;SDS011;1649;53.672;10.064;2023-07-13T04:03:42;17.67;;;12.00;;
3274;SDS011;1649;53.672;10.064;2023-07-13T04:06:11;21.80;;;12.93;;
3274;SDS011;1649;53.672;10.064;2023-07-13T04:08:40;14.50;;;11.97;;
3274;SDS011;1649;53.672;10.064;2023-07-13T04:11:06;18.53;;;13.03;;
3274;SDS011;1649;53.672;10.064;2023-07-13T04:13:32;17.00;;;13.33;;
3274;SDS011;1649;53.672;10.064;2023-07-13T04:15:57;17.30;;;12.90;;
3274;SDS011;1649;53.672;10.064;2023-07-13T04:18:23;18.50;;;12.03;;
3274;SDS011;1649;53.672;10.064;2023-07-13T04:20:49;15.73;;;11.80;;
3274;SDS011;1649;53.672;10.064;2023-07-13T04:23:18;18.13;;;12.00;;
3274;SDS011;1649;53.672;10.064;2023-07-13T04:25:47;16.53;;;12.20;;
3274;SDS011;1649;53.672;10.064;2023-07-13T04:28:17;22.93;;;12.23;;
3274;SDS011;1649;53.672;10.064;2023-07-13T04:30:43;16.70;;;10.37;;
3274;SDS011;1649;53.672;10.064;2023-07-13T04:33:09;15.97;;;10.80;;
3274;SDS011;1649;53.672;10.064;2023-07-13T04:35:35;16.63;;;9.47;;
3274;SDS011;1649;53.672;10.064;2023-07-13T04:38:00;20.23;;;10.77;;
3274;SDS011;1649;53.672;10.064;2023-07-13T04:40:26;13.20;;;10.07;;
3274;SDS011;1649;53.672;10.064;2023-07-13T04:42:52;14.70;;;9.70;;
3274;SDS011;1649;53.672;10.064;2023-07-13T04:45:18;13.67;;;9.20;;
3274;SDS011;1649;53.672;10.064;2023-07-13T04:47:43;12.63;;;9.93;;
3274;SDS011;1649;53.672;10.064;2023-07-13T04:50:09;10.83;;;7.90;;
3274;SDS011;1649;53.672;10.064;2023-07-13T04:52:36;12.60;;;9.57;;
3274;SDS011;1649;53.672;10.064;2023-07-13T04:55:01;13.40;;;8.57;;
3274;SDS011;1649;53.672;10.064;2023-07-13T04:57:27;15.50;;;9.83;;
3274;SDS011;1649;53.672;10.064;2023-07-13T04:59:53;13.37;;;8.43;;
3274;SDS011;1649;53.672;10.064;2023-07-13T05:02:20;13.87;;;8.40;;
3274;SDS011;1649;53.672;10.064;2023-07-13T05:04:46;12.80;;;8.10;;
3274;SDS011;1649;53.672;10.064;2023-07-13T05:07:12;16.57;;;8.50;;
3274;SDS011;1649;53.672;10.064;2023-07-13T05:09:38;14.23;;;8.37;;
3274;SDS011;1649;53.672;10.064;2023-07-13T05:12:05;13.70;;;8.53;;
3274;SDS011;1649;53.672;10.064;2023-07-13T05:14:31;14.60;;;8.10;;
3274;SDS011;1649;53.672;10.064;2023-07-13T05:16:57;12.53;;;7.80;;
3274;SDS011;1649;53.672;10.064;2023-07-13T05:19:22;10.07;;;7.10;;
3274;SDS011;1649;53.672;10.064;2023-07-13T05:21:48;13.87;;;8.83;;
3274;SDS011;1649;53.672;10.064;2023-07-13T05:24:13;11.00;;;7.50;;
3274;SDS011;1649;53.672;10.064;2023-07-13T05:26:39;14.03;;;7.20;;
3274;SDS011;1649;53.672;10.064;2023-07-13T05:29:04;11.63;;;7.83;;
3274;SDS011;1649;53.672;10.064;2023-07-13T05:31:30;14.37;;;7.93;;
3274;SDS011;1649;53.672;10.064;2023-07-13T05:33:55;15.20;;;7.57;;
3274;SDS011;1649;53.672;10.064;2023-07-13T05:36:20;16.80;;;7.53;;
3274;SDS011;1649;53.672;10.064;2023-07-13T05:38:46;12.50;;;7.10;;
3274;SDS011;1649;53.672;10.064;2023-07-13T05:41:11;17.80;;;7.57;;
3274;SDS011;1649;53.672;10.064;2023-07-13T05:43:37;14.37;;;7.60;;
3274;SDS011;1649;53.672;10.064;2023-07-13T05:46:02;15.80;;;7.67;;
3274;SDS011;1649;53.672;10.064;2023-07-13T05:48:28;14.40;;;7.13;;
3274;SDS011;1649;53.672;10.064;2023-07-13T05:50:53;13.10;;;6.97;;
3274;SDS011;1649;53.672;10.064;2023-07-13T05:53:19;11.57;;;6.67;;
3274;SDS011;1649;53.672;10.064;2023-07-13T05:55:45;13.47;;;7.27;;
3274;SDS011;1649;53.672;10.064;2023-07-13T05:58:18;14.27;;;7.03;;
3274;SDS011;1649;53.672;10.064;2023-07-13T06:00:44;14.73;;;6.97;;
3274;SDS011;1649;53.672;10.064;2023-07-13T06:03:10;11.97;;;7.23;;
3274;SDS011;1649;53.672;10.064;2023-07-13T06:05:36;15.30;;;6.73;;
3274;SDS011;1649;53.672;10.064;2023-07-13T06:08:03;17.20;;;7.90;;
3274;SDS011;1649;53.672;10.064;2023-07-13T06:10:32;14.33;;;7.67;;
3274;SDS011;1649;53.672;10.064;2023-07-13T06:12:58;13.83;;;6.97;;
3274;SDS011;1649;53.672;10.064;2023-07-13T06:15:23;12.97;;;6.93;;
3274;SDS011;1649;53.672;10.064;2023-07-13T06:17:49;14.20;;;7.57;;
3274;SDS011;1649;53.672;10.064;2023-07-13T06:20:14;18.50;;;7.67;;
3274;SDS011;1649;53.672;10.064;2023-07-13T06:22:40;15.73;;;6.80;;
3274;SDS011;1649;53.672;10.064;2023-07-13T06:25:05;18.60;;;7.00;;
3274;SDS011;1649;53.672;10.064;2023-07-13T06:27:31;14.27;;;6.50;;
3274;SDS011;1649;53.672;10.064;2023-07-13T06:29:57;12.87;;;6.63;;
3274;SDS011;1649;53.672;10.064;2023-07-13T06:32:22;12.27;;;7.00;;
3274;SDS011;1649;53.672;10.064;2023-07-13T06:34:48;10.10;;;6.50;;
3274;SDS011;1649;53.672;10.064;2023-07-13T06:37:13;12.00;;;6.90;;
3274;SDS011;1649;53.672;10.064;2023-07-13T06:39:39;17.07;;;7.20;;
3274;SDS011;1649;53.672;10.064;2023-07-13T06:42:05;11.20;;;6.27;;
3274;SDS011;1649;53.672;10.064;2023-07-13T06:44:31;9.97;;;6.03;;
3274;SDS011;1649;53.672;10.064;2023-07-13T06:46:56;13.13;;;6.03;;
3274;SDS011;1649;53.672;10.064;2023-07-13T06:49:22;11.57;;;5.83;;
3274;SDS011;1649;53.672;10.064;2023-07-13T06:51:47;11.00;;;5.50;;
3274;SDS011;1649;53.672;10.064;2023-07-13T06:54:13;13.97;;;6.17;;
3274;SDS011;1649;53.672;10.064;2023-07-13T06:56:38;10.93;;;4.97;;
3274;SDS011;1649;53.672;10.064;2023-07-13T06:59:04;10.33;;;5.17;;
3274;SDS011;1649;53.672;10.064;2023-07-13T07:01:29;11.27;;;5.10;;
3274;SDS011;1649;53.672;10.064;2023-07-13T07:03:55;11.60;;;4.70;;
3274;SDS011;1649;53.672;10.064;2023-07-13T07:06:21;12.17;;;5.20;;
3274;SDS011;1649;53.672;10.064;2023-07-13T07:08:50;12.60;;;4.37;;
3274;SDS011;1649;53.672;10.064;2023-07-13T07:11:18;9.10;;;4.70;;
3274;SDS011;1649;53.672;10.064;2023-07-13T07:13:47;9.93;;;4.80;;
3274;SDS011;1649;53.672;10.064;2023-07-13T07:16:12;8.93;;;4.83;;
3274;SDS011;1649;53.672;10.064;2023-07-13T07:18:38;9.13;;;4.27;;
3274;SDS011;1649;53.672;10.064;2023-07-13T07:21:03;10.90;;;4.67;;
3274;SDS011;1649;53.672;10.064;2023-07-13T07:23:29;8.80;;;4.13;;
3274;SDS011;1649;53.672;10.064;2023-07-13T07:25:55;8.63;;;3.77;;
3274;SDS011;1649;53.672;10.064;2023-07-13T07:28:20;10.47;;;4.30;;
3274;SDS011;1649;53.672;10.064;2023-07-13T07:30:47;12.03;;;4.47;;
3274;SDS011;1649;53.672;10.064;2023-07-13T07:33:13;10.40;;;4.17;;
3274;SDS011;1649;53.672;10.064;2023-07-13T07:35:39;7.40;;;3.60;;
3274;SDS011;1649;53.672;10.064;2023-07-13T07:38:04;7.43;;;3.40;;
3274;SDS011;1649;53.672;10.064;2023-07-13T07:40:30;10.87;;;4.17;;
3274;SDS011;1649;53.672;10.064;2023-07-13T07:42:56;8.53;;;3.47;;
3274;SDS011;1649;53.672;10.064;2023-07-13T07:45:22;9.20;;;3.20;;
3274;SDS011;1649;53.672;10.064;2023-07-13T07:47:48;5.67;;;3.23;;
3274;SDS011;1649;53.672;10.064;2023-07-13T07:50:14;8.80;;;3.30;;
3274;SDS011;1649;53.672;10.064;2023-07-13T07:52:40;5.57;;;2.93;;
3274;SDS011;1649;53.672;10.064;2023-07-13T07:55:06;9.67;;;3.53;;
3274;SDS011;1649;53.672;10.064;2023-07-13T07:57:32;10.70;;;2.70;;
3274;SDS011;1649;53.672;10.064;2023-07-13T07:59:59;11.10;;;3.20;;
3274;SDS011;1649;53.672;10.064;2023-07-13T08:02:25;7.30;;;2.83;;
3274;SDS011;1649;53.672;10.064;2023-07-13T08:04:50;8.90;;;2.53;;
3274;SDS011;1649;53.672;10.064;2023-07-13T08:07:16;7.30;;;3.00;;
3274;SDS011;1649;53.672;10.064;2023-07-13T08:09:42;5.93;;;2.80;;
3274;SDS011;1649;53.672;10.064;2023-07-13T08:12:08;8.27;;;2.70;;
3274;SDS011;1649;53.672;10.064;2023-07-13T08:14:33;9.30;;;2.90;;
3274;SDS011;1649;53.672;10.064;2023-07-13T08:16:59;7.93;;;2.60;;
3274;SDS011;1649;53.672;10.064;2023-07-13T08:19:24;6.40;;;2.60;;
3274;SDS011;1649;53.672;10.064;2023-07-13T08:21:50;8.47;;;2.70;;
3274;SDS011;1649;53.672;10.064;2023-07-13T08:24:15;8.87;;;2.70;;
3274;SDS011;1649;53.672;10.064;2023-07-13T08:26:43;8.07;;;3.40;;
3274;SDS011;1649;53.672;10.064;2023-07-13T08:29:09;7.90;;;2.80;;
3274;SDS011;1649;53.672;10.064;2023-07-13T08:31:34;7.70;;;2.90;;
3274;SDS011;1649;53.672;10.064;2023-07-13T08:34:00;7.53;;;2.70;;
3274;SDS011;1649;53.672;10.064;2023-07-13T08:36:25;9.87;;;2.60;;
3274;SDS011;1649;53.672;10.064;2023-07-13T08:38:52;7.33;;;2.93;;
3274;SDS011;1649;53.672;10.064;2023-07-13T08:41:18;10.40;;;2.67;;
3274;SDS011;1649;53.672;10.064;2023-07-13T08:43:51;7.97;;;2.60;;
3274;SDS011;1649;53.672;10.064;2023-07-13T08:46:23;8.40;;;3.07;;
3274;SDS011;1649;53.672;10.064;2023-07-13T08:49:05;9.13;;;2.70;;
3274;SDS011;1649;53.672;10.064;2023-07-13T08:54:12;10.97;;;3.40;;
3274;SDS011;1649;53.672;10.064;2023-07-13T08:56:46;7.50;;;2.57;;
3274;SDS011;1649;53.672;10.064;2023-07-13T08:59:15;9.27;;;2.70;;
3274;SDS011;1649;53.672;10.064;2023-07-13T09:01:47;8.20;;;2.60;;
3274;SDS011;1649;53.672;10.064;2023-07-13T09:04:22;7.03;;;2.30;;
3274;SDS011;1649;53.672;10.064;2023-07-13T09:12:38;7.07;;;2.43;;
3274;SDS011;1649;53.672;10.064;2023-07-13T09:15:24;7.77;;;2.30;;
3274;SDS011;1649;53.672;10.064;2023-07-13T09:17:56;4.20;;;2.10;;
3274;SDS011;1649;53.672;10.064;2023-07-13T09:23:04;8.13;;;2.43;;
3274;SDS011;1649;53.672;10.064;2023-07-13T09:25:35;6.20;;;2.50;;
3274;SDS011;1649;53.672;10.064;2023-07-13T09:28:20;6.80;;;2.40;;
3274;SDS011;1649;53.672;10.064;2023-07-13T09:30:58;6.23;;;2.17;;
3274;SDS011;1649;53.672;10.064;2023-07-13T09:33:41;6.73;;;2.77;;
3274;SDS011;1649;53.672;10.064;2023-07-13T09:36:26;6.23;;;2.53;;
3274;SDS011;1649;53.672;10.064;2023-07-13T09:44:36;7.37;;;2.50;;
3274;SDS011;1649;53.672;10.064;2023-07-13T09:47:03;6.60;;;2.60;;
3274;SDS011;1649;53.672;10.064;2023-07-13T09:49:39;6.97;;;2.40;;
3274;SDS011;1649;53.672;10.064;2023-07-13T09:52:06;5.40;;;2.30;;
3274;SDS011;1649;53.672;10.064;2023-07-13T09:54:35;6.87;;;2.77;;
3274;SDS011;1649;53.672;10.064;2023-07-13T09:57:02;6.40;;;2.30;;
3274;SDS011;1649;53.672;10.064;2023-07-13T09:59:31;6.40;;;2.43;;
3274;SDS011;1649;53.672;10.064;2023-07-13T10:01:59;6.70;;;2.40;;
3274;SDS011;1649;53.672;10.064;2023-07-13T10:04:30;5.70;;;2.53;;
3274;SDS011;1649;53.672;10.064;2023-07-13T10:07:05;6.40;;;2.40;;
3274;SDS011;1649;53.672;10.064;2023-07-13T10:09:32;5.70;;;2.80;;
3274;SDS011;1649;53.672;10.064;2023-07-13T10:11:57;7.60;;;2.50;;
3274;SDS011;1649;53.672;10.064;2023-07-13T10:14:23;7.40;;;3.13;;
3274;SDS011;1649;53.672;10.064;2023-07-13T10:16:50;6.20;;;3.10;;
3274;SDS011;1649;53.672;10.064;2023-07-13T10:19:27;6.57;;;3.10;;
3274;SDS011;1649;53.672;10.064;2023-07-13T10:22:01;7.90;;;3.00;;
3274;SDS011;1649;53.672;10.064;2023-07-13T10:24:36;7.83;;;2.90;;
3274;SDS011;1649;53.672;10.064;2023-07-13T10:27:05;6.60;;;2.50;;
3274;SDS011;1649;53.672;10.064;2023-07-13T10:29:51;7.47;;;2.80;;
3274;SDS011;1649;53.672;10.064;2023-07-13T10:32:17;7.33;;;2.30;;
3274;SDS011;1649;53.672;10.064;2023-07-13T10:34:46;6.07;;;2.17;;
3274;SDS011;1649;53.672;10.064;2023-07-13T10:37:15;7.10;;;2.40;;
3274;SDS011;1649;53.672;10.064;2023-07-13T10:39:47;5.57;;;2.50;;
3274;SDS011;1649;53.672;10.064;2023-07-13T10:42:16;5.80;;;2.83;;
3274;SDS011;1649;53.672;10.064;2023-07-13T10:45:18;6.97;;;2.67;;
3274;SDS011;1649;53.672;10.064;2023-07-13T10:47:46;5.90;;;2.40;;
3274;SDS011;1649;53.672;10.064;2023-07-13T10:50:20;6.67;;;2.70;;
3274;SDS011;1649;53.672;10.064;2023-07-13T10:52:50;5.60;;;2.27;;
3274;SDS011;1649;53.672;10.064;2023-07-13T10:58:37;5.90;;;2.47;;
3274;SDS011;1649;53.672;10.064;2023-07-13T11:01:11;6.20;;;2.70;;
3274;SDS011;1649;53.672;10.064;2023-07-13T11:06:09;6.73;;;2.70;;
3274;SDS011;1649;53.672;10.064;2023-07-13T11:08:51;6.07;;;2.70;;
3274;SDS011;1649;53.672;10.064;2023-07-13T11:18:44;7.67;;;2.87;;
3274;SDS011;1649;53.672;10.064;2023-07-13T11:21:16;8.53;;;3.13;;
3274;SDS011;1649;53.672;10.064;2023-07-13T11:23:43;7.27;;;2.50;;
3274;SDS011;1649;53.672;10.064;2023-07-13T11:31:42;7.77;;;2.90;;
3274;SDS011;1649;53.672;10.064;2023-07-13T11:34:16;5.77;;;2.57;;
3274;SDS011;1649;53.672;10.064;2023-07-13T11:36:48;5.33;;;2.27;;
3274;SDS011;1649;53.672;10.064;2023-07-13T11:39:19;5.33;;;2.30;;
3274;SDS011;1649;53.672;10.064;2023-07-13T11:41:56;6.57;;;2.10;;
3274;SDS011;1649;53.672;10.064;2023-07-13T11:44:28;8.77;;;3.00;;
3274;SDS011;1649;53.672;10.064;2023-07-13T11:47:08;6.40;;;2.40;;
3274;SDS011;1649;53.672;10.064;2023-07-13T11:49:43;7.70;;;2.70;;
3274;SDS011;1649;53.672;10.064;2023-07-13T11:52:14;6.20;;;2.03;;
3274;SDS011;1649;53.672;10.064;2023-07-13T11:54:52;7.20;;;2.20;;
3274;SDS011;1649;53.672;10.064;2023-07-13T11:59:52;7.00;;;2.03;;
3274;SDS011;1649;53.672;10.064;2023-07-13T12:02:26;4.80;;;1.87;;
3274;SDS011;1649;53.672;10.064;2023-07-13T12:05:02;6.23;;;2.20;;
3274;SDS011;1649;53.672;10.064;2023-07-13T12:07:31;5.70;;;1.67;;
3274;SDS011;1649;53.672;10.064;2023-07-13T12:10:02;6.10;;;2.00;;
3274;SDS011;1649;53.672;10.064;2023-07-13T12:12:36;5.67;;;1.80;;
3274;SDS011;1649;53.672;10.064;2023-07-13T12:15:05;14.37;;;2.03;;
3274;SDS011;1649;53.672;10.064;2023-07-13T12:17:31;5.83;;;2.80;;
3274;SDS011;1649;53.672;10.064;2023-07-13T12:19:59;8.00;;;2.10;;
3274;SDS011;1649;53.672;10.064;2023-07-13T12:22:33;6.50;;;2.30;;
3274;SDS011;1649;53.672;10.064;2023-07-13T12:24:59;11.53;;;3.27;;
3274;SDS011;1649;53.672;10.064;2023-07-13T12:27:26;10.07;;;2.73;;
3274;SDS011;1649;53.672;10.064;2023-07-13T12:29:59;5.97;;;2.50;;
3274;SDS011;1649;53.672;10.064;2023-07-13T12:32:31;8.43;;;3.00;;
3274;SDS011;1649;53.672;10.064;2023-07-13T12:35:15;7.07;;;3.53;;
3274;SDS011;1649;53.672;10.064;2023-07-13T12:37:43;9.17;;;3.37;;
3274;SDS011;1649;53.672;10.064;2023-07-13T12:40:17;7.37;;;3.47;;
3274;SDS011;1649;53.672;10.064;2023-07-13T12:42:46;8.37;;;3.30;;
3274;SDS011;1649;53.672;10.064;2023-07-13T12:45:20;9.57;;;3.93;;
3274;SDS011;1649;53.672;10.064;2023-07-13T12:47:55;6.50;;;4.10;;
3274;SDS011;1649;53.672;10.064;2023-07-13T12:50:30;7.97;;;4.50;;
3274;SDS011;1649;53.672;10.064;2023-07-13T12:53:02;7.17;;;4.63;;
3274;SDS011;1649;53.672;10.064;2023-07-13T12:55:40;8.50;;;4.43;;
3274;SDS011;1649;53.672;10.064;2023-07-13T12:58:14;7.00;;;4.17;;
3274;SDS011;1649;53.672;10.064;2023-07-13T13:00:53;8.93;;;3.97;;
3274;SDS011;1649;53.672;10.064;2023-07-13T13:03:31;8.43;;;4.20;;
3274;SDS011;1649;53.672;10.064;2023-07-13T13:05:58;8.73;;;3.33;;
3274;SDS011;1649;53.672;10.064;2023-07-13T13:08:27;8.70;;;3.50;;
3274;SDS011;1649;53.672;10.064;2023-07-13T13:10:53;8.20;;;3.70;;
3274;SDS011;1649;53.672;10.064;2023-07-13T13:13:19;6.63;;;3.10;;
3274;SDS011;1649;53.672;10.064;2023-07-13T13:15:44;7.87;;;2.90;;
3274;SDS011;1649;53.672;10.064;2023-07-13T13:18:14;8.40;;;3.07;;
3274;SDS011;1649;53.672;10.064;2023-07-13T13:20:42;6.57;;;2.87;;
3274;SDS011;1649;53.672;10.064;2023-07-13T13:23:12;5.83;;;3.13;;
3274;SDS011;1649;53.672;10.064;2023-07-13T13:25:42;6.77;;;3.10;;
3274;SDS011;1649;53.672;10.064;2023-07-13T13:28:12;5.63;;;3.07;;
3274;SDS011;1649;53.672;10.064;2023-07-13T13:30:39;6.50;;;3.00;;
3274;SDS011;1649;53.672;10.064;2023-07-13T13:33:08;5.93;;;2.50;;
3274;SDS011;1649;53.672;10.064;2023-07-13T13:35:37;5.33;;;2.60;;
3274;SDS011;1649;53.672;10.064;2023-07-13T13:38:07;5.23;;;2.30;;
3274;SDS011;1649;53.672;10.064;2023-07-13T13:40:36;9.03;;;2.80;;
3274;SDS011;1649;53.672;10.064;2023-07-13T13:43:01;4.93;;;2.60;;
3274;SDS011;1649;53.672;10.064;2023-07-13T13:45:27;6.00;;;2.60;;
3274;SDS011;1649;53.672;10.064;2023-07-13T13:47:52;5.40;;;2.47;;
3274;SDS011;1649;53.672;10.064;2023-07-13T13:50:19;7.10;;;2.73;;
3274;SDS011;1649;53.672;10.064;2023-07-13T13:52:47;5.80;;;2.33;;
3274;SDS011;1649;53.672;10.064;2023-07-13T13:55:14;5.13;;;2.67;;
3274;SDS011;1649;53.672;10.064;2023-07-13T13:57:40;6.03;;;2.77;;
3274;SDS011;1649;53.672;10.064;2023-07-13T14:00:06;6.53;;;3.03;;
3274;SDS011;1649;53.672;10.064;2023-07-13T14:02:36;5.83;;;2.90;;
3274;SDS011;1649;53.672;10.064;2023-07-13T14:05:02;6.40;;;2.70;;
3274;SDS011;1649;53.672;10.064;2023-07-13T14:07:28;6.20;;;2.90;;
3274;SDS011;1649;53.672;10.064;2023-07-13T14:09:57;6.40;;;3.07;;
3274;SDS011;1649;53.672;10.064;2023-07-13T14:12:25;8.30;;;3.50;;
3274;SDS011;1649;53.672;10.064;2023-07-13T14:14:53;7.80;;;3.67;;
3274;SDS011;1649;53.672;10.064;2023-07-13T14:17:20;8.00;;;3.00;;
3274;SDS011;1649;53.672;10.064;2023-07-13T14:19:49;6.30;;;3.27;;
3274;SDS011;1649;53.672;10.064;2023-07-13T14:22:16;5.73;;;3.17;;
3274;SDS011;1649;53.672;10.064;2023-07-13T14:24:43;5.57;;;3.10;;
3274;SDS011;1649;53.672;10.064;2023-07-13T14:27:09;6.50;;;3.13;;
3274;SDS011;1649;53.672;10.064;2023-07-13T14:29:36;6.20;;;3.30;;
3274;SDS011;1649;53.672;10.064;2023-07-13T14:32:01;6.53;;;3.30;;
3274;SDS011;1649;53.672;10.064;2023-07-13T14:34:27;4.90;;;2.50;;
3274;SDS011;1649;53.672;10.064;2023-07-13T14:36:53;5.50;;;2.73;;
3274;SDS011;1649;53.672;10.064;2023-07-13T14:39:19;5.00;;;3.13;;
3274;SDS011;1649;53.672;10.064;2023-07-13T14:41:49;6.10;;;3.40;;
3274;SDS011;1649;53.672;10.064;2023-07-13T14:44:17;7.83;;;3.83;;
3274;SDS011;1649;53.672;10.064;2023-07-13T14:46:46;6.77;;;3.40;;
3274;SDS011;1649;53.672;10.064;2023-07-13T14:51:54;6.30;;;3.00;;
3274;SDS011;1649;53.672;10.064;2023-07-13T14:54:24;7.93;;;3.63;;
3274;SDS011;1649;53.672;10.064;2023-07-13T14:56:50;6.70;;;3.57;;
3274;SDS011;1649;53.672;10.064;2023-07-13T14:59:16;8.50;;;3.80;;
3274;SDS011;1649;53.672;10.064;2023-07-13T15:01:43;8.37;;;4.03;;
3274;SDS011;1649;53.672;10.064;2023-07-13T15:04:10;6.83;;;3.50;;
3274;SDS011;1649;53.672;10.064;2023-07-13T15:09:20;7.73;;;4.00;;
3274;SDS011;1649;53.672;10.064;2023-07-13T15:11:45;6.83;;;3.60;;
3274;SDS011;1649;53.672;10.064;2023-07-13T15:14:11;5.83;;;3.90;;
3274;SDS011;1649;53.672;10.064;2023-07-13T15:16:36;6.30;;;3.40;;
3274;SDS011;1649;53.672;10.064;2023-07-13T15:19:02;6.77;;;3.20;;
3274;SDS011;1649;53.672;10.064;2023-07-13T15:21:28;7.53;;;3.17;;
3274;SDS011;1649;53.672;10.064;2023-07-13T15:23:59;7.10;;;3.17;;
3274;SDS011;1649;53.672;10.064;2023-07-13T15:26:25;5.50;;;3.30;;
3274;SDS011;1649;53.672;10.064;2023-07-13T15:28:51;7.70;;;3.13;;
3274;SDS011;1649;53.672;10.064;2023-07-13T15:31:25;5.13;;;2.80;;
3274;SDS011;1649;53.672;10.064;2023-07-13T15:33:53;4.83;;;2.40;;
3274;SDS011;1649;53.672;10.064;2023-07-13T15:36:22;6.83;;;2.80;;
3274;SDS011;1649;53.672;10.064;2023-07-13T15:38:51;5.57;;;2.33;;
3274;SDS011;1649;53.672;10.064;2023-07-13T15:41:19;5.93;;;2.37;;
3274;SDS011;1649;53.672;10.064;2023-07-13T15:43:47;4.90;;;2.10;;
3274;SDS011;1649;53.672;10.064;2023-07-13T15:46:14;5.40;;;2.20;;